createdAt,value
2022-08-26T00:01:16.000Z,49.16
2022-08-26T00:03:44.659Z,48.96
2022-08-26T00:06:11.840Z,48.93
2022-08-26T00:08:40.290Z,49.14
2022-08-26T00:11:08.991Z,49.13
2022-08-26T00:13:37.306Z,49.20
2022-08-26T00:16:05.799Z,49.29
2022-08-26T00:18:38.560Z,49.50
2022-08-26T00:21:07.924Z,49.02
2022-08-26T00:23:35.740Z,49.18
2022-08-26T00:26:04.761Z,48.99
2022-08-26T00:28:32.744Z,49.02
2022-08-26T00:31:00.634Z,49.13
2022-08-26T00:33:28.145Z,48.94
2022-08-26T00:35:56.697Z,49.35
2022-08-26T00:38:24.193Z,49.30
2022-08-26T00:40:53.486Z,48.75
2022-08-26T00:43:23.477Z,48.94
2022-08-26T00:45:55.635Z,48.81
2022-08-26T00:48:27.780Z,49.05
2022-08-26T00:51:04.178Z,49.01
2022-08-26T00:53:36.931Z,48.84
2022-08-26T00:56:08.152Z,49.24
2022-08-26T00:58:37.964Z,48.93
2022-08-26T01:01:08.518Z,49.26
2022-08-26T01:03:37.733Z,49.14
2022-08-26T01:06:12.517Z,49.27
2022-08-26T01:08:40.728Z,49.12
2022-08-26T01:11:08.682Z,49.00
2022-08-26T01:13:37.259Z,49.29
2022-08-26T01:16:07.325Z,48.98
2022-08-26T01:18:34.980Z,49.04
2022-08-26T01:21:11.799Z,48.83
2022-08-26T01:23:45.031Z,49.08
2022-08-26T01:26:20.040Z,48.84
2022-08-26T01:28:50.611Z,49.02
2022-08-26T01:31:22.564Z,48.75
2022-08-26T01:33:55.299Z,48.94
2022-08-26T01:36:24.814Z,49.00
2022-08-26T01:38:53.720Z,49.04
2022-08-26T01:41:27.348Z,48.63
2022-08-26T01:43:57.950Z,48.98
2022-08-26T01:46:28.497Z,48.97
2022-08-26T01:48:58.448Z,48.47
2022-08-26T01:51:27.217Z,48.64
2022-08-26T01:53:56.015Z,48.86
2022-08-26T01:56:23.922Z,49.36
2022-08-26T01:58:54.178Z,49.08
2022-08-26T02:01:22.337Z,48.94
2022-08-26T02:03:58.093Z,48.98
2022-08-26T02:06:25.445Z,48.84
2022-08-26T02:08:57.154Z,48.61
2022-08-26T02:11:24.308Z,48.59
2022-08-26T02:13:58.649Z,48.98
2022-08-26T02:16:28.596Z,48.67
2022-08-26T02:18:56.079Z,48.50
2022-08-26T02:21:24.892Z,48.63
2022-08-26T02:23:52.849Z,48.60
2022-08-26T02:26:25.414Z,48.71
2022-08-26T02:28:58.405Z,48.74
2022-08-26T02:31:25.723Z,48.56
2022-08-26T02:33:52.987Z,48.38
2022-08-26T02:36:21.606Z,48.58
2022-08-26T02:38:48.758Z,48.46
2022-08-26T02:41:16.033Z,48.71
2022-08-26T02:43:46.592Z,48.34
2022-08-26T02:46:13.938Z,48.86
2022-08-26T02:48:55.059Z,48.87
2022-08-26T02:51:22.352Z,48.92
2022-08-26T02:53:50.202Z,48.96
2022-08-26T02:56:18.390Z,48.99
2022-08-26T02:58:47.309Z,48.62
2022-08-26T03:01:22.928Z,48.90
2022-08-26T03:03:50.399Z,48.72
2022-08-26T03:06:17.703Z,48.47
2022-08-26T03:08:45.075Z,48.67
2022-08-26T03:11:12.784Z,48.73
2022-08-26T03:13:41.246Z,48.89
2022-08-26T03:16:10.762Z,48.86
2022-08-26T03:18:37.991Z,48.72
2022-08-26T03:21:06.249Z,48.43
2022-08-26T03:23:33.795Z,48.69
2022-08-26T03:26:01.867Z,48.34
2022-08-26T03:28:29.353Z,48.49
2022-08-26T03:30:56.832Z,48.64
2022-08-26T03:33:26.765Z,48.63
2022-08-26T03:35:55.003Z,48.80
2022-08-26T03:38:23.735Z,48.57
2022-08-26T03:40:51.283Z,48.41
2022-08-26T03:43:19.780Z,48.65
2022-08-26T03:45:47.101Z,48.35
2022-08-26T03:48:14.303Z,48.29
2022-08-26T03:50:43.373Z,48.73
2022-08-26T03:53:13.132Z,48.89
2022-08-26T03:55:41.462Z,48.73
2022-08-26T03:58:08.731Z,49.03
2022-08-26T04:00:36.409Z,48.70
2022-08-26T04:03:03.805Z,48.84
2022-08-26T04:05:31.024Z,48.60
2022-08-26T04:07:59.893Z,50.09
2022-08-26T04:10:29.058Z,49.28
2022-08-26T04:12:59.006Z,48.92
2022-08-26T04:15:31.152Z,49.21
2022-08-26T04:17:58.259Z,49.15
2022-08-26T04:20:25.563Z,49.17
2022-08-26T04:22:52.791Z,48.91
2022-08-26T04:25:21.323Z,49.08
2022-08-26T04:27:48.578Z,48.99
2022-08-26T04:30:17.882Z,49.15
2022-08-26T04:32:45.112Z,49.04
2022-08-26T04:35:12.256Z,48.84
2022-08-26T04:37:39.561Z,48.85
2022-08-26T04:40:11.012Z,48.88
2022-08-26T04:42:39.644Z,49.12
2022-08-26T04:45:10.048Z,49.07
2022-08-26T04:47:37.591Z,48.98
2022-08-26T04:50:06.238Z,49.25
2022-08-26T04:52:34.914Z,49.05
2022-08-26T04:55:02.287Z,48.98
2022-08-26T04:57:29.779Z,49.08
2022-08-26T04:59:58.269Z,48.82
2022-08-26T05:02:25.378Z,49.04
2022-08-26T05:04:52.491Z,49.21
2022-08-26T05:07:19.635Z,49.11
2022-08-26T05:09:46.917Z,49.03
2022-08-26T05:12:14.045Z,49.19
2022-08-26T05:14:43.621Z,48.89
2022-08-26T05:17:14.951Z,48.91
2022-08-26T05:19:42.986Z,48.88
2022-08-26T05:22:10.317Z,48.71
2022-08-26T05:24:40.706Z,48.52
2022-08-26T05:27:11.748Z,48.93
2022-08-26T05:29:39.897Z,48.62
2022-08-26T05:32:07.207Z,48.60
2022-08-26T05:34:35.745Z,48.41
2022-08-26T05:37:06.596Z,48.55
2022-08-26T05:39:33.935Z,48.85
2022-08-26T05:42:01.522Z,48.68
2022-08-26T05:44:29.534Z,48.71
2022-08-26T05:47:16.612Z,48.62
2022-08-26T05:49:51.408Z,48.55
2022-08-26T05:52:18.955Z,48.68
2022-08-26T05:54:46.154Z,48.81
2022-08-26T05:57:15.484Z,48.84
2022-08-26T05:59:42.694Z,48.46
2022-08-26T06:02:10.179Z,48.96
2022-08-26T06:04:37.329Z,48.62
2022-08-26T06:07:05.899Z,49.03
2022-08-26T06:09:37.093Z,48.93
2022-08-26T06:12:05.948Z,48.86
2022-08-26T06:14:33.114Z,48.78
2022-08-26T06:17:00.275Z,48.72
2022-08-26T06:19:32.878Z,48.48
2022-08-26T06:22:01.770Z,48.78
2022-08-26T06:24:30.336Z,48.95
2022-08-26T06:26:59.713Z,48.51
2022-08-26T06:29:28.907Z,48.41
2022-08-26T06:31:57.417Z,48.90
2022-08-26T06:34:29.880Z,48.36
2022-08-26T06:37:01.393Z,48.94
2022-08-26T06:39:31.534Z,48.88
2022-08-26T06:41:59.249Z,48.60
2022-08-26T06:44:26.971Z,48.81
2022-08-26T06:46:54.355Z,52.19
2022-08-26T06:49:26.902Z,50.49
2022-08-26T06:51:55.673Z,49.70
2022-08-26T06:54:22.799Z,49.71
2022-08-26T06:56:51.299Z,49.08
2022-08-26T06:59:18.433Z,49.16
2022-08-26T07:01:45.879Z,48.76
2022-08-26T07:04:15.947Z,48.61
2022-08-26T07:06:50.044Z,48.67
2022-08-26T07:09:21.157Z,48.42
2022-08-26T07:11:48.353Z,48.39
2022-08-26T07:14:21.133Z,48.17
2022-08-26T07:16:49.418Z,48.50
2022-08-26T07:19:16.740Z,48.46
2022-08-26T07:21:44.049Z,48.56
2022-08-26T07:24:11.469Z,48.13
2022-08-26T07:26:42.889Z,48.46
2022-08-26T07:29:10.861Z,48.51
2022-08-26T07:31:42.884Z,48.16
2022-08-26T07:34:10.598Z,48.43
2022-08-26T07:36:37.742Z,48.54
2022-08-26T07:39:05.857Z,48.43
2022-08-26T07:41:33.648Z,48.46
2022-08-26T07:44:01.271Z,48.26
2022-08-26T07:46:30.210Z,47.96
2022-08-26T07:48:59.147Z,47.77
2022-08-26T07:51:27.787Z,47.98
2022-08-26T07:53:55.189Z,47.91
2022-08-26T07:56:22.859Z,47.95
2022-08-26T07:58:51.781Z,48.21
2022-08-26T08:01:19.534Z,47.98
2022-08-26T08:03:46.782Z,48.18
2022-08-26T08:06:19.246Z,47.97
2022-08-26T08:08:46.708Z,47.90
2022-08-26T08:11:14.691Z,47.77
2022-08-26T08:13:41.857Z,47.77
2022-08-26T08:16:12.753Z,47.99
2022-08-26T08:18:40.189Z,47.94
2022-08-26T08:21:22.046Z,48.05
2022-08-26T08:23:54.291Z,48.04
2022-08-26T08:26:22.461Z,48.06
2022-08-26T08:28:49.710Z,48.05
2022-08-26T08:31:38.556Z,48.08
2022-08-26T08:34:08.115Z,48.33
2022-08-26T08:36:36.053Z,48.35
2022-08-26T08:39:04.928Z,48.45
2022-08-26T08:41:52.314Z,47.88
2022-08-26T08:46:55.202Z,48.23
2022-08-26T08:49:23.279Z,48.34
2022-08-26T08:51:56.663Z,48.21
2022-08-26T08:54:25.196Z,48.08
2022-08-26T08:56:59.785Z,48.36
2022-08-26T08:59:31.581Z,48.16
2022-08-26T09:02:08.687Z,47.94
2022-08-26T09:04:54.537Z,47.96
2022-08-26T09:07:25.369Z,48.08
2022-08-26T09:09:57.467Z,47.89
2022-08-26T09:12:29.343Z,47.85
2022-08-26T09:15:02.192Z,48.11
2022-08-26T09:17:42.107Z,48.23
2022-08-26T09:20:17.984Z,47.95
2022-08-26T09:22:45.202Z,48.24
2022-08-26T09:25:14.859Z,48.51
2022-08-26T09:27:44.801Z,48.61
2022-08-26T09:30:14.862Z,48.35
2022-08-26T09:32:42.845Z,48.58
2022-08-26T09:35:26.235Z,48.20
2022-08-26T09:37:53.702Z,48.69
2022-08-26T09:40:30.278Z,48.59
2022-08-26T09:43:13.898Z,48.46
2022-08-26T09:45:49.374Z,48.45
2022-08-26T09:48:30.698Z,48.01
2022-08-26T09:51:00.342Z,48.17
2022-08-26T09:53:30.688Z,48.39
2022-08-26T09:56:15.927Z,48.26
2022-08-26T09:58:45.460Z,48.25
2022-08-26T10:01:17.147Z,47.82
2022-08-26T10:03:47.141Z,48.18
2022-08-26T10:06:24.555Z,48.25
2022-08-26T10:08:54.755Z,48.31
2022-08-26T10:11:32.975Z,48.40
2022-08-26T10:14:04.661Z,48.61
2022-08-26T10:16:42.504Z,48.39
2022-08-26T10:19:13.458Z,48.22
2022-08-26T10:21:54.158Z,47.90
2022-08-26T10:24:25.962Z,47.78
2022-08-26T10:27:02.285Z,48.08
2022-08-26T10:29:36.242Z,47.69
2022-08-26T10:32:10.356Z,48.11
2022-08-26T10:34:41.141Z,47.76
2022-08-26T10:37:16.146Z,47.93
2022-08-26T10:39:57.257Z,47.96
2022-08-26T10:42:32.560Z,47.46
2022-08-26T10:45:06.631Z,47.35
2022-08-26T10:47:47.578Z,47.30
2022-08-26T10:50:15.347Z,47.39
2022-08-26T10:52:57.507Z,47.48
2022-08-26T10:55:30.057Z,47.46
2022-08-26T10:58:26.455Z,47.65
2022-08-26T11:01:00.321Z,47.47
2022-08-26T11:03:35.363Z,47.29
2022-08-26T11:06:21.336Z,47.44
2022-08-26T11:08:49.913Z,47.81
2022-08-26T11:11:47.018Z,47.50
2022-08-26T11:14:53.100Z,47.77
2022-08-26T11:17:55.685Z,47.54
2022-08-26T11:20:34.435Z,47.90
2022-08-26T11:23:45.150Z,47.46
2022-08-26T11:26:35.735Z,47.67
2022-08-26T11:29:12.860Z,47.56
2022-08-26T11:31:56.362Z,47.14
2022-08-26T11:34:51.013Z,47.09
2022-08-26T11:39:56.954Z,47.02
2022-08-26T11:42:35.679Z,47.54
2022-08-26T11:45:16.621Z,47.35
2022-08-26T11:47:45.137Z,47.04
2022-08-26T11:50:15.617Z,47.12
2022-08-26T11:52:51.504Z,47.24
2022-08-26T11:55:19.100Z,47.65
2022-08-26T11:57:49.199Z,47.65
2022-08-26T12:00:21.772Z,47.53
2022-08-26T12:02:53.431Z,47.49
2022-08-26T12:05:26.821Z,47.83
2022-08-26T12:08:04.110Z,47.61
2022-08-26T12:10:33.405Z,47.56
2022-08-26T12:13:03.608Z,47.59
2022-08-26T12:15:33.053Z,47.79
2022-08-26T12:18:20.776Z,46.91
2022-08-26T12:21:00.356Z,46.93
2022-08-26T12:23:38.962Z,47.03
2022-08-26T12:26:10.405Z,47.10
2022-08-26T12:28:43.507Z,47.21
2022-08-26T12:31:10.711Z,47.34
2022-08-26T12:33:39.311Z,47.21
2022-08-26T12:36:06.792Z,47.22
2022-08-26T12:38:35.856Z,47.23
2022-08-26T12:41:03.095Z,47.41
2022-08-26T12:43:41.996Z,47.02
2022-08-26T12:46:12.045Z,47.37
2022-08-26T12:48:42.469Z,47.45
2022-08-26T12:51:21.651Z,47.19
2022-08-26T12:53:48.825Z,47.13
2022-08-26T12:56:24.867Z,47.47
2022-08-26T12:59:06.784Z,47.30
2022-08-26T13:01:40.564Z,47.55
2022-08-26T13:04:33.010Z,47.60
2022-08-26T13:07:14.167Z,47.28
2022-08-26T13:09:41.431Z,47.30
2022-08-26T13:12:10.290Z,47.28
2022-08-26T13:14:37.648Z,47.16
2022-08-26T13:17:04.866Z,47.22
2022-08-26T13:19:33.350Z,47.03
2022-08-26T13:22:01.201Z,47.55
2022-08-26T13:24:32.941Z,47.37
2022-08-26T13:27:00.867Z,47.41
2022-08-26T13:29:28.193Z,47.45
2022-08-26T13:31:56.357Z,47.76
2022-08-26T13:34:25.414Z,47.71
2022-08-26T13:36:55.315Z,47.60
2022-08-26T13:39:24.046Z,47.74
2022-08-26T13:41:51.865Z,47.50
2022-08-26T13:44:19.323Z,47.57
2022-08-26T13:46:46.519Z,47.75
2022-08-26T13:49:14.069Z,47.69
2022-08-26T13:51:41.466Z,47.50
2022-08-26T13:54:09.966Z,47.51
2022-08-26T13:56:37.420Z,47.33
2022-08-26T13:59:05.328Z,47.17
2022-08-26T14:01:32.939Z,47.41
2022-08-26T14:04:00.094Z,47.20
2022-08-26T14:06:27.255Z,47.33
2022-08-26T14:08:55.570Z,47.52
2022-08-26T14:11:24.518Z,47.04
2022-08-26T14:13:51.791Z,47.41
2022-08-26T14:16:23.100Z,47.36
2022-08-26T14:18:51.040Z,47.20
2022-08-26T14:21:18.700Z,47.46
2022-08-26T14:23:45.931Z,47.68
2022-08-26T14:26:21.222Z,47.84
2022-08-26T14:28:58.796Z,47.42
2022-08-26T14:31:26.633Z,47.55
2022-08-26T14:33:55.786Z,47.68
2022-08-26T14:36:22.914Z,47.67
2022-08-26T14:38:50.088Z,47.69
2022-08-26T14:41:18.506Z,47.23
2022-08-26T14:43:48.894Z,47.79
2022-08-26T14:46:17.977Z,47.39
2022-08-26T14:48:45.241Z,47.58
2022-08-26T14:51:12.365Z,47.25
2022-08-26T14:53:39.498Z,47.38
2022-08-26T14:56:06.697Z,46.99
2022-08-26T14:58:34.980Z,47.53
2022-08-26T15:01:04.216Z,47.41
2022-08-26T15:03:33.071Z,47.11
2022-08-26T15:06:00.214Z,47.40
2022-08-26T15:08:27.383Z,47.06
2022-08-26T15:10:54.544Z,47.14
2022-08-26T15:13:21.663Z,47.21
2022-08-26T15:15:48.840Z,47.25
2022-08-26T15:18:15.983Z,47.20
2022-08-26T15:20:44.464Z,47.04
2022-08-26T15:23:11.914Z,47.13
2022-08-26T15:25:39.250Z,47.18
2022-08-26T15:28:06.405Z,47.13
2022-08-26T15:30:33.563Z,47.28
2022-08-26T15:33:00.734Z,47.16
2022-08-26T15:35:28.103Z,47.17
2022-08-26T15:38:01.544Z,47.05
2022-08-26T15:40:28.879Z,47.10
2022-08-26T15:43:11.316Z,46.69
2022-08-26T15:45:43.129Z,47.19
2022-08-26T15:48:10.288Z,49.02
2022-08-26T15:50:48.383Z,49.95
2022-08-26T15:53:16.928Z,50.64
2022-08-26T15:55:44.107Z,50.51
2022-08-26T15:58:11.426Z,50.27
2022-08-26T16:00:38.663Z,50.48
2022-08-26T16:03:05.998Z,50.04
2022-08-26T16:05:33.406Z,50.00
2022-08-26T16:08:00.604Z,50.23
2022-08-26T16:10:29.623Z,50.55
2022-08-26T16:12:56.793Z,50.40
2022-08-26T16:15:23.999Z,51.21
2022-08-26T16:17:51.187Z,50.56
2022-08-26T16:20:18.450Z,50.60
2022-08-26T16:22:45.604Z,50.61
2022-08-26T16:25:12.852Z,50.64
2022-08-26T16:27:41.337Z,50.59
2022-08-26T16:30:09.775Z,50.58
2022-08-26T16:32:36.919Z,50.53
2022-08-26T16:35:04.902Z,49.94
2022-08-26T16:37:33.760Z,51.34
2022-08-26T16:40:03.999Z,51.74
2022-08-26T16:42:31.174Z,51.33
2022-08-26T16:44:59.753Z,51.92
2022-08-26T16:47:27.020Z,51.17
2022-08-26T16:49:54.177Z,51.42
2022-08-26T16:52:21.369Z,51.73
2022-08-26T16:54:51.986Z,51.79
2022-08-26T16:57:19.475Z,52.34
2022-08-26T16:59:46.634Z,52.81
2022-08-26T17:02:15.151Z,52.33
2022-08-26T17:04:42.378Z,51.77
2022-08-26T17:07:14.389Z,52.14
2022-08-26T17:09:41.584Z,51.71
2022-08-26T17:12:09.420Z,51.74
2022-08-26T17:14:36.559Z,51.20
2022-08-26T17:17:03.791Z,51.05
2022-08-26T17:19:32.799Z,51.51
2022-08-26T17:22:08.046Z,51.71
2022-08-26T17:24:35.466Z,51.65
2022-08-26T17:27:02.745Z,52.11
2022-08-26T17:29:29.930Z,52.48
2022-08-26T17:31:57.262Z,52.55
2022-08-26T17:34:24.614Z,52.77
2022-08-26T17:36:53.146Z,53.26
2022-08-26T17:39:20.345Z,53.29
2022-08-26T17:41:47.469Z,53.30
2022-08-26T17:44:14.621Z,52.96
2022-08-26T17:46:41.804Z,53.82
2022-08-26T17:49:09.011Z,53.83
2022-08-26T17:51:36.142Z,53.34
2022-08-26T17:54:04.857Z,53.28
2022-08-26T17:56:32.130Z,53.77
2022-08-26T17:59:03.521Z,53.40
2022-08-26T18:01:31.814Z,53.96
2022-08-26T18:04:00.611Z,54.72
2022-08-26T18:06:29.109Z,54.36
2022-08-26T18:08:56.374Z,54.34
2022-08-26T18:11:24.890Z,54.52
2022-08-26T18:13:52.088Z,54.01
2022-08-26T18:16:19.964Z,53.78
2022-08-26T18:18:48.939Z,53.97
2022-08-26T18:21:19.052Z,54.73
2022-08-26T18:23:47.392Z,55.47
2022-08-26T18:26:19.044Z,55.15
2022-08-26T18:28:47.794Z,54.52
2022-08-26T18:31:15.034Z,55.31
2022-08-26T18:33:42.643Z,55.48
2022-08-26T18:36:15.799Z,55.26
2022-08-26T18:38:42.938Z,54.08
2022-08-26T18:41:10.244Z,54.11
2022-08-26T18:43:37.512Z,53.47
2022-08-26T18:46:08.386Z,53.58
2022-08-26T18:48:37.243Z,53.41
2022-08-26T18:51:04.658Z,53.41
2022-08-26T18:53:31.790Z,53.23
2022-08-26T18:55:59.227Z,53.06
2022-08-26T18:58:26.398Z,53.52
2022-08-26T19:00:53.665Z,53.60
2022-08-26T19:03:22.154Z,53.64
2022-08-26T19:05:49.619Z,53.17
2022-08-26T19:08:16.758Z,53.39
2022-08-26T19:10:44.192Z,53.43
2022-08-26T19:13:12.675Z,53.37
2022-08-26T19:15:45.100Z,53.36
2022-08-26T19:18:13.878Z,53.65
2022-08-26T19:20:46.623Z,53.75
2022-08-26T19:23:30.844Z,53.72
2022-08-26T19:25:58.959Z,53.70
2022-08-26T19:28:26.107Z,53.53
2022-08-26T19:30:53.624Z,53.67
2022-08-26T19:33:20.956Z,53.96
2022-08-26T19:35:49.608Z,54.24
2022-08-26T19:38:16.791Z,53.84
2022-08-26T19:40:44.123Z,54.00
2022-08-26T19:43:11.988Z,54.41
2022-08-26T19:45:39.817Z,54.52
2022-08-26T19:48:07.032Z,54.12
2022-08-26T19:50:34.714Z,54.11
2022-08-26T19:53:03.663Z,54.07
2022-08-26T19:55:31.324Z,53.67
2022-08-26T19:57:58.627Z,53.82
2022-08-26T20:00:29.540Z,53.46
2022-08-26T20:02:56.746Z,53.77
2022-08-26T20:05:25.936Z,53.25
2022-08-26T20:07:53.722Z,53.09
2022-08-26T20:10:24.348Z,53.25
2022-08-26T20:12:51.722Z,53.37
2022-08-26T20:15:20.128Z,53.47
2022-08-26T20:17:47.607Z,53.63
2022-08-26T20:20:32.898Z,53.74
2022-08-26T20:23:01.094Z,53.35
2022-08-26T20:25:29.763Z,53.27
2022-08-26T20:27:56.872Z,53.35
2022-08-26T20:30:24.074Z,53.17
2022-08-26T20:32:51.264Z,53.19
2022-08-26T20:35:18.899Z,53.00
2022-08-26T20:37:46.027Z,52.91
2022-08-26T20:40:14.961Z,52.80
2022-08-26T20:42:43.576Z,53.02
2022-08-26T20:45:11.413Z,52.65
2022-08-26T20:47:38.550Z,52.51
2022-08-26T20:50:06.215Z,52.69
2022-08-26T20:52:33.370Z,52.33
2022-08-26T20:55:00.523Z,52.32
2022-08-26T20:57:27.691Z,52.48
2022-08-26T20:59:56.158Z,52.39
2022-08-26T21:02:23.295Z,52.41
2022-08-26T21:04:50.480Z,52.61
2022-08-26T21:07:17.733Z,52.52
2022-08-26T21:09:44.930Z,52.70
2022-08-26T21:12:12.936Z,52.74
2022-08-26T21:14:40.102Z,52.64
2022-08-26T21:17:08.621Z,52.57
2022-08-26T21:19:35.897Z,52.30
2022-08-26T21:22:03.206Z,52.41
2022-08-26T21:24:30.435Z,52.17
2022-08-26T21:26:57.970Z,52.39
2022-08-26T21:29:25.161Z,52.02
2022-08-26T21:31:52.341Z,52.01
2022-08-26T21:34:20.862Z,52.25
2022-08-26T21:36:48.604Z,52.21
2022-08-26T21:39:16.068Z,51.98
2022-08-26T21:41:44.630Z,51.80
2022-08-26T21:44:12.973Z,52.07
2022-08-26T21:46:41.011Z,51.77
2022-08-26T21:49:10.782Z,51.74
2022-08-26T21:51:44.810Z,52.35
2022-08-26T21:54:12.640Z,52.44
2022-08-26T21:56:42.702Z,52.39
2022-08-26T21:59:10.218Z,52.04
2022-08-26T22:01:37.647Z,52.46
2022-08-26T22:04:07.995Z,52.09
2022-08-26T22:06:41.663Z,52.07
2022-08-26T22:09:08.982Z,52.34
2022-08-26T22:11:36.619Z,52.22
2022-08-26T22:14:04.292Z,52.12
2022-08-26T22:16:31.491Z,51.92
2022-08-26T22:18:58.659Z,51.92
2022-08-26T22:21:26.836Z,51.66
2022-08-26T22:23:56.427Z,51.94
2022-08-26T22:26:28.114Z,51.55
2022-08-26T22:28:59.169Z,51.81
2022-08-26T22:31:28.093Z,51.55
2022-08-26T22:34:07.446Z,51.43
2022-08-26T22:36:34.683Z,51.73
2022-08-26T22:39:03.887Z,51.64
2022-08-26T22:41:33.339Z,51.74
2022-08-26T22:44:01.264Z,51.93
2022-08-26T22:46:28.524Z,51.67
2022-08-26T22:48:55.668Z,51.98
2022-08-26T22:51:23.155Z,51.70
2022-08-26T22:53:50.335Z,51.53
2022-08-26T22:56:18.853Z,51.86
2022-08-26T22:58:46.083Z,51.79
2022-08-26T23:01:13.353Z,51.76
2022-08-26T23:03:40.565Z,51.75
2022-08-26T23:06:08.897Z,51.37
2022-08-26T23:08:36.363Z,51.17
2022-08-26T23:11:07.336Z,51.30
2022-08-26T23:13:36.218Z,51.49
2022-08-26T23:16:05.653Z,51.63
2022-08-26T23:18:32.864Z,51.31
2022-08-26T23:21:00.214Z,51.24
2022-08-26T23:23:27.488Z,51.64
2022-08-26T23:25:55.485Z,51.48
2022-08-26T23:28:22.770Z,51.23
2022-08-26T23:30:51.291Z,51.34
2022-08-26T23:33:18.445Z,51.86
2022-08-26T23:35:45.670Z,51.36
2022-08-26T23:38:14.354Z,51.66
2022-08-26T23:40:41.569Z,51.32
2022-08-26T23:43:10.409Z,51.37
2022-08-26T23:45:37.633Z,51.33
2022-08-26T23:48:06.504Z,51.31
2022-08-26T23:50:34.227Z,51.23
2022-08-26T23:53:01.353Z,51.09
2022-08-26T23:55:29.127Z,51.26
2022-08-26T23:57:56.274Z,51.13
